Time;durP1;ratioP1;P1;durP2;ratioP2;P2;SDS_P1;SDS_P2;PMS_P1;PMS_P2;Temp;Humidity;BMP_temperature;BMP_pressure;BME280_temperature;BME280_humidity;BME280_pressure;Samples;Min_cycle;Max_cycle;Signal;HPM_P1;HPM_P2
2022/07/26 00:01:45;;;;;;;16.83;3.97;;;;;;;17.70;73.09;101164.75;5030679;28;20025;-74
2022/07/26 00:04:11;;;;;;;9.73;3.00;;;;;;;17.70;72.71;101167.50;5032392;28;20024;-74
2022/07/26 00:06:36;;;;;;;12.50;3.67;;;;;;;17.70;72.86;101172.03;5031300;28;20047;-74
2022/07/26 00:09:02;;;;;;;11.13;2.92;;;;;;;17.71;72.95;101171.03;5027171;28;20037;-74
2022/07/26 00:11:29;;;;;;;12.98;3.45;;;;;;;17.69;72.83;101168.47;5027015;28;20026;-74
2022/07/26 00:13:54;;;;;;;10.07;2.75;;;;;;;17.69;73.27;101173.91;5033358;28;20065;-74
2022/07/26 00:16:20;;;;;;;11.90;3.13;;;;;;;17.70;73.06;101167.50;5028219;28;20738;-74
2022/07/26 00:18:46;;;;;;;10.60;3.58;;;;;;;17.71;73.00;101161.03;5028832;28;20034;-74
2022/07/26 00:21:12;;;;;;;13.00;2.97;;;;;;;17.71;72.97;101166.47;5015244;28;20386;-74
2022/07/26 00:23:38;;;;;;;11.15;3.03;;;;;;;17.70;73.48;101167.50;5017220;28;20032;-74
2022/07/26 00:26:03;;;;;;;7.85;2.80;;;;;;;17.68;73.06;101163.19;5019346;28;20116;-74
2022/07/26 00:28:28;;;;;;;13.52;3.50;;;;;;;17.66;73.26;101174.22;5032272;28;20264;-74
2022/07/26 00:30:54;;;;;;;12.27;2.95;;;;;;;17.62;73.21;101173.66;5014102;28;20029;-74
2022/07/26 00:33:19;;;;;;;12.02;2.70;;;;;;;17.63;73.61;101177.25;5024270;28;20040;-74
2022/07/26 00:35:44;;;;;;;12.63;3.20;;;;;;;17.61;73.25;101177.41;5016275;28;20593;-74
2022/07/26 00:38:10;;;;;;;7.30;2.70;;;;;;;17.61;73.63;101180.13;5031050;28;20030;-74
2022/07/26 00:40:35;;;;;;;7.22;2.53;;;;;;;17.62;73.67;101183.69;5033044;28;20366;-74
2022/07/26 00:43:00;;;;;;;8.73;2.80;;;;;;;17.59;73.63;101184.84;5026724;28;20029;-74
2022/07/26 00:45:25;;;;;;;12.32;3.25;;;;;;;17.61;73.55;101181.97;5022684;28;20029;-74
2022/07/26 00:47:51;;;;;;;12.07;3.25;;;;;;;17.62;73.70;101186.41;5031957;28;20041;-74
2022/07/26 00:50:18;;;;;;;11.32;3.00;;;;;;;17.61;73.60;101182.84;5024962;28;20029;-74
2022/07/26 00:52:45;;;;;;;13.88;3.03;;;;;;;17.59;73.75;101178.56;5030749;28;20025;-74
2022/07/26 00:55:11;;;;;;;7.45;2.53;;;;;;;17.61;73.79;101181.97;5023567;28;20511;-74
2022/07/26 00:57:38;;;;;;;12.07;3.35;;;;;;;17.59;73.78;101183.97;5030086;28;20030;-74
2022/07/26 01:00:12;;;;;;;9.30;3.08;;;;;;;17.60;73.87;101182.97;5019802;28;20033;-74
2022/07/26 01:02:38;;;;;;;10.18;3.20;;;;;;;17.60;74.04;101177.53;5030041;28;20060;-74
2022/07/26 01:05:03;;;;;;;12.80;3.20;;;;;;;17.61;74.81;101177.41;5024320;28;20060;-74
2022/07/26 01:07:29;;;;;;;12.43;2.92;;;;;;;17.65;74.32;101175.22;5032182;28;20651;-74
2022/07/26 01:09:54;;;;;;;16.73;3.65;;;;;;;17.65;74.61;101170.63;5027668;28;20021;-74
2022/07/26 01:12:20;;;;;;;15.88;3.58;;;;;;;17.68;74.74;101180.34;5030323;28;20056;-74
2022/07/26 01:14:45;;;;;;;12.95;3.47;;;;;;;17.67;74.91;101175.06;5017656;28;20030;-74
2022/07/26 01:17:12;;;;;;;13.32;3.08;;;;;;;17.67;74.73;101180.50;5029888;28;20021;-74
2022/07/26 01:19:37;;;;;;;14.20;3.50;;;;;;;17.66;74.96;101171.50;5028415;28;20444;-74
2022/07/26 01:22:03;;;;;;;11.38;3.25;;;;;;;17.71;74.89;101171.91;5025421;28;20027;-74
2022/07/26 01:24:28;;;;;;;10.65;3.28;;;;;;;17.68;74.66;101172.19;5029175;28;20025;-74
2022/07/26 01:26:55;;;;;;;10.70;3.30;;;;;;;17.71;75.17;101162.91;5026533;28;20035;-74
2022/07/26 01:29:21;;;;;;;12.65;2.95;;;;;;;17.71;75.30;101166.47;5030175;28;20041;-74
2022/07/26 01:31:46;;;;;;;11.20;3.28;;;;;;;17.69;74.99;101157.59;5025580;28;20033;-74
2022/07/26 01:34:12;;;;;;;15.70;3.67;;;;;;;17.68;76.10;101160.47;5012621;28;20390;-74
2022/07/26 01:36:37;;;;;;;8.23;3.03;;;;;;;17.70;76.50;101158.44;5027773;28;20095;-74
2022/07/26 01:39:03;;;;;;;14.98;4.00;;;;;;;17.68;76.80;101157.75;5030344;28;20030;-74
2022/07/26 01:41:28;;;;;;;15.27;3.50;;;;;;;17.67;77.31;101151.44;5022363;28;20132;-74
2022/07/26 01:43:53;;;;;;;11.43;3.00;;;;;;;17.68;76.88;101158.59;5022726;28;20056;-74
2022/07/26 01:46:19;;;;;;;13.52;3.10;;;;;;;17.68;77.17;101165.91;5015730;28;20029;-74
2022/07/26 01:48:44;;;;;;;15.77;3.95;;;;;;;17.63;77.51;101169.09;5030184;28;20045;-74
2022/07/26 01:51:09;;;;;;;12.50;3.25;;;;;;;17.64;77.40;101173.50;5024726;28;20088;-74
2022/07/26 01:53:35;;;;;;;17.67;4.05;;;;;;;17.63;77.43;101171.81;5017360;28;20057;-74
2022/07/26 01:56:00;;;;;;;13.52;3.67;;;;;;;17.63;77.92;101169.94;5027099;28;20026;-74
2022/07/26 01:58:25;;;;;;;16.15;3.90;;;;;;;17.63;77.84;101174.53;5028972;28;20071;-74
2022/07/26 02:00:51;;;;;;;20.40;4.47;;;;;;;17.64;77.84;101177.09;5029691;28;20045;-74
2022/07/26 02:03:16;;;;;;;15.95;4.15;;;;;;;17.66;78.10;101174.22;5010925;28;20095;-74
2022/07/26 02:05:41;;;;;;;16.45;4.35;;;;;;;17.66;77.93;101171.50;5015479;28;20028;-74
2022/07/26 02:08:06;;;;;;;11.07;3.88;;;;;;;17.69;77.98;101173.03;5024452;28;20025;-74
2022/07/26 02:13:16;;;;;;;12.35;3.50;;;;;;;17.64;78.13;101176.22;5016170;28;20505;-74
2022/07/26 02:15:41;;;;;;;20.48;4.75;;;;;;;17.64;78.41;101177.09;5027993;28;20022;-74
2022/07/26 02:18:06;;;;;;;15.63;4.47;;;;;;;17.64;78.24;101171.66;5017570;28;20231;-74
2022/07/26 02:20:32;;;;;;;15.85;4.47;;;;;;;17.62;78.29;101175.53;5019767;28;20120;-74
2022/07/26 02:23:00;;;;;;;14.68;3.42;;;;;;;17.65;78.46;101175.22;5028015;28;20040;-74
2022/07/26 02:25:25;;;;;;;14.77;4.13;;;;;;;17.63;78.66;101182.69;5011863;28;20026;-74
2022/07/26 02:27:51;;;;;;;16.27;4.47;;;;;;;17.62;78.54;101189.13;5023700;28;20129;-74
2022/07/26 02:30:16;;;;;;;20.80;4.28;;;;;;;17.63;78.60;101174.53;5029581;28;20456;-74
2022/07/26 02:32:42;;;;;;;17.13;4.55;;;;;;;17.62;78.91;101189.13;5029887;28;20041;-74
2022/07/26 02:35:08;;;;;;;15.10;4.03;;;;;;;17.58;79.01;101182.25;5024442;28;20379;-74
2022/07/26 02:37:33;;;;;;;18.05;3.92;;;;;;;17.55;79.41;101183.41;5026083;28;20037;-74
2022/07/26 02:40:00;;;;;;;18.50;4.43;;;;;;;17.56;78.81;101189.72;5030020;28;20434;-74
2022/07/26 02:42:25;;;;;;;16.55;5.10;;;;;;;17.52;79.87;101189.16;5021656;28;20125;-74
2022/07/26 02:44:52;;;;;;;16.20;4.57;;;;;;;17.54;79.43;101192.59;5020855;28;20141;-74
2022/07/26 02:47:18;;;;;;;17.20;4.50;;;;;;;17.52;79.60;101200.03;5026256;28;20103;-74
2022/07/26 02:49:43;;;;;;;22.63;4.22;;;;;;;17.53;79.85;101190.88;5014843;28;20497;-74
2022/07/26 02:52:08;;;;;;;22.95;5.65;;;;;;;17.55;80.19;101194.28;5033787;28;20033;-74
2022/07/26 02:54:34;;;;;;;20.77;4.55;;;;;;;17.54;80.03;101200.75;5032172;28;20036;-74
2022/07/26 02:56:59;;;;;;;19.70;4.35;;;;;;;17.54;80.32;101197.16;5020976;28;20041;-74
2022/07/26 02:59:24;;;;;;;18.52;5.10;;;;;;;17.55;80.20;101201.59;5018162;28;20021;-74
2022/07/26 03:01:49;;;;;;;19.98;5.25;;;;;;;17.54;80.75;101200.75;5029499;28;20040;-74
2022/07/26 03:04:15;;;;;;;17.00;4.53;;;;;;;17.54;80.25;101208.03;5015581;28;20519;-74
2022/07/26 03:06:40;;;;;;;25.80;5.65;;;;;;;17.55;80.36;101207.03;5017249;28;20125;-74
2022/07/26 03:09:05;;;;;;;18.02;4.70;;;;;;;17.55;80.56;101215.19;5015574;28;20032;-74
2022/07/26 03:11:30;;;;;;;21.10;5.13;;;;;;;17.54;80.82;101210.75;5025574;28;20110;-74
2022/07/26 03:13:56;;;;;;;38.75;19.50;;;;;;;17.54;80.36;101216.19;5017268;28;20446;-74
2022/07/26 03:16:21;;;;;;;24.17;9.48;;;;;;;17.52;80.92;101218.19;5031778;28;20029;-74
2022/07/26 03:18:46;;;;;;;23.52;5.68;;;;;;;17.51;80.91;101211.91;5015402;28;20036;-74
2022/07/26 03:21:11;;;;;;;22.70;5.82;;;;;;;17.51;81.22;101217.34;5020129;28;20029;-74
2022/07/26 03:23:37;;;;;;;17.20;4.70;;;;;;;17.51;81.09;101219.19;5033209;28;20029;-74
2022/07/26 03:26:03;;;;;;;15.80;4.50;;;;;;;17.51;81.16;101220.06;5020674;28;20021;-74
2022/07/26 03:28:30;;;;;;;21.73;5.10;;;;;;;17.52;81.51;101223.63;5033240;28;20046;-74
2022/07/26 03:30:55;;;;;;;21.98;5.03;;;;;;;17.51;81.49;101230.94;5030635;28;20477;-74
2022/07/26 03:33:21;;;;;;;21.27;6.20;;;;;;;17.52;81.50;101229.06;5020565;28;20036;-74
2022/07/26 03:35:46;;;;;;;18.25;5.28;;;;;;;17.54;81.43;101235.19;5028118;28;20029;-74
2022/07/26 03:38:11;;;;;;;19.58;5.28;;;;;;;17.52;81.58;101234.50;5029559;28;20455;-74
2022/07/26 03:40:36;;;;;;;18.23;5.18;;;;;;;17.46;81.69;101239.50;5015469;28;20026;-74
2022/07/26 03:43:02;;;;;;;16.80;5.07;;;;;;;17.43;81.99;101239.81;5031029;28;20037;-74
2022/07/26 03:45:28;;;;;;;19.98;4.95;;;;;;;17.41;82.11;101240.97;5032725;28;20029;-74
2022/07/26 03:47:53;;;;;;;20.17;5.15;;;;;;;17.40;81.96;101234.69;5020538;28;20034;-74
2022/07/26 03:50:18;;;;;;;20.63;5.85;;;;;;;17.39;82.31;101230.25;5024762;28;20037;-74
2022/07/26 03:52:44;;;;;;;19.23;5.35;;;;;;;17.39;82.36;101235.66;5013511;28;20022;-74
2022/07/26 03:57:53;;;;;;;21.15;5.47;;;;;;;17.40;82.60;101241.97;5019029;28;20405;-74
2022/07/26 04:00:19;;;;;;;19.55;5.15;;;;;;;17.41;82.65;101246.38;5031946;28;20026;-74
2022/07/26 04:02:45;;;;;;;17.90;4.72;;;;;;;17.41;82.84;101249.09;5023731;28;20474;-74
2022/07/26 04:05:10;;;;;;;25.20;6.00;;;;;;;17.40;83.05;101248.25;5012292;28;20022;-74
2022/07/26 04:07:45;;;;;;;15.57;4.72;;;;;;;17.42;82.34;101238.13;5040577;28;20075;-74
2022/07/26 04:10:11;;;;;;;16.55;5.22;;;;;;;17.41;82.97;101243.69;5017324;28;20469;-74
2022/07/26 04:12:37;;;;;;;18.08;5.65;;;;;;;17.44;82.95;101243.41;5027072;28;20098;-74
2022/07/26 04:15:03;;;;;;;21.17;5.53;;;;;;;17.43;83.11;101247.13;5022073;28;20029;-74
2022/07/26 04:17:36;;;;;;;15.68;4.70;;;;;;;17.45;82.77;101250.53;5020253;28;20018;-74
2022/07/26 04:20:01;;;;;;;19.88;5.28;;;;;;;17.47;82.80;101243.94;5024665;28;20036;-74
2022/07/26 04:22:26;;;;;;;18.40;5.95;;;;;;;17.46;82.81;101249.53;5028506;28;20120;-74
2022/07/26 04:24:51;;;;;;;19.33;5.32;;;;;;;17.45;83.24;101255.97;5028143;28;20451;-74
2022/07/26 04:27:17;;;;;;;21.45;3.70;;;;;;;17.52;82.27;101258.97;4491996;28;15056195;-74
2022/07/26 04:29:42;;;;;;;17.30;5.38;;;;;;;17.51;83.15;101259.97;4996776;28;20148;-74
2022/07/26 04:32:07;;;;;;;17.65;5.43;;;;;;;17.48;83.07;101263.81;5025647;28;20038;-74
2022/07/26 04:34:32;;;;;;;18.58;5.35;;;;;;;17.52;83.06;101264.41;5018490;28;20429;-74
2022/07/26 04:36:58;;;;;;;21.38;5.28;;;;;;;17.51;83.12;101263.56;5021305;28;20029;-74
2022/07/26 04:39:23;;;;;;;18.27;5.82;;;;;;;17.52;83.22;101270.69;5015276;28;20129;-74
2022/07/26 04:41:49;;;;;;;20.17;5.75;;;;;;;17.54;83.33;101268.69;5025756;28;20090;-74
2022/07/26 04:44:14;;;;;;;17.50;5.50;;;;;;;17.54;83.38;101268.69;5032002;28;20477;-74
2022/07/26 04:46:39;;;;;;;16.63;5.22;;;;;;;17.54;83.37;101262.38;5027180;28;20036;-74
2022/07/26 04:49:04;;;;;;;19.42;5.35;;;;;;;17.54;83.61;101263.25;5022803;28;20034;-74
2022/07/26 04:51:30;;;;;;;19.27;5.20;;;;;;;17.55;83.34;101264.09;5018349;28;20033;-74
2022/07/26 04:53:55;;;;;;;20.63;6.35;;;;;;;17.56;83.17;101265.81;5031991;28;20022;-74
2022/07/26 04:56:20;;;;;;;16.95;5.07;;;;;;;17.56;83.56;101272.09;5026790;28;20036;-74
2022/07/26 04:58:45;;;;;;;16.50;5.68;;;;;;;17.57;83.62;101279.25;5033857;28;20025;-74
2022/07/26 05:01:11;;;;;;;22.00;6.13;;;;;;;17.54;83.46;101279.56;5030324;28;20017;-74
2022/07/26 05:03:36;;;;;;;22.45;5.85;;;;;;;17.57;83.53;101275.66;5024136;28;20037;-74
2022/07/26 05:06:02;;;;;;;17.98;5.28;;;;;;;17.56;83.32;101282.13;5033048;28;20029;-74
2022/07/26 05:08:27;;;;;;;21.02;6.63;;;;;;;17.55;83.55;101272.25;5014773;28;20045;-74
2022/07/26 05:10:52;;;;;;;20.63;5.57;;;;;;;17.56;83.48;101280.25;5023652;28;20032;-74
2022/07/26 05:13:17;;;;;;;17.20;5.50;;;;;;;17.55;83.83;101280.41;5013901;28;20021;-74
2022/07/26 05:15:43;;;;;;;18.98;5.68;;;;;;;17.53;83.54;101283.28;5012259;28;20026;-74
2022/07/26 05:18:09;;;;;;;22.92;5.82;;;;;;;17.55;83.99;101283.13;5012597;28;20030;-74
2022/07/26 05:20:35;;;;;;;18.88;4.85;;;;;;;17.57;83.71;101289.25;5023519;28;20489;-74
2022/07/26 05:23:01;;;;;;;24.40;6.10;;;;;;;17.55;83.95;101291.28;5027476;28;20040;-74
2022/07/26 05:25:26;;;;;;;19.95;5.32;;;;;;;17.54;83.95;101295.00;5031111;28;20025;-74
2022/07/26 05:27:52;;;;;;;20.85;6.30;;;;;;;17.53;84.22;101293.31;5017198;28;20441;-74
2022/07/26 05:30:18;;;;;;;17.77;5.40;;;;;;;17.51;84.59;101307.03;5017683;28;20481;-74
2022/07/26 05:32:43;;;;;;;19.70;5.22;;;;;;;17.52;84.50;101307.88;5019414;28;20518;-74
2022/07/26 05:35:09;;;;;;;22.50;5.80;;;;;;;17.54;84.61;101312.19;5023192;28;20038;-74
2022/07/26 05:37:35;;;;;;;22.02;6.82;;;;;;;17.57;84.39;101311.00;5017555;28;20398;-74
2022/07/26 05:40:02;;;;;;;19.95;5.45;;;;;;;17.60;84.96;101310.69;5029041;28;20037;-74
2022/07/26 05:42:28;;;;;;;21.90;6.13;;;;;;;17.62;84.30;101311.44;5025823;28;20490;-74
2022/07/26 05:44:53;;;;;;;22.42;6.07;;;;;;;17.63;83.97;101311.28;5020350;28;20062;-74
2022/07/26 05:47:18;;;;;;;21.80;6.72;;;;;;;17.65;83.90;101308.41;5028846;28;20041;-74
2022/07/26 05:49:44;;;;;;;20.40;5.78;;;;;;;17.68;84.07;101319.00;5025121;28;20038;-74
2022/07/26 05:52:09;;;;;;;21.38;5.88;;;;;;;17.73;83.55;101321.25;5014050;28;20037;-74
2022/07/26 05:54:34;;;;;;;22.08;6.18;;;;;;;17.75;82.72;101320.13;5024972;28;20033;-74
2022/07/26 05:57:00;;;;;;;20.52;6.20;;;;;;;17.81;82.75;101327.66;5015124;28;20065;-74
2022/07/26 05:59:25;;;;;;;17.38;5.82;;;;;;;17.87;82.56;101322.66;5012483;28;20065;-74
2022/07/26 06:01:50;;;;;;;14.65;5.35;;;;;;;17.90;81.52;101323.22;5026275;28;20021;-74
2022/07/26 06:04:16;;;;;;;18.95;5.60;;;;;;;17.90;80.95;101331.41;5021713;28;20388;-74
2022/07/26 06:06:41;;;;;;;24.38;6.95;;;;;;;17.92;81.36;101331.25;5026236;28;20211;-74
2022/07/26 06:09:07;;;;;;;19.45;6.32;;;;;;;17.93;81.52;101327.53;5031448;28;20029;-74
2022/07/26 06:11:32;;;;;;;24.05;6.65;;;;;;;17.93;80.95;101330.25;5023439;28;20466;-73
2022/07/26 06:13:57;;;;;;;14.93;5.20;;;;;;;17.97;80.57;101335.22;5020370;28;20021;-73
2022/07/26 06:16:22;;;;;;;19.75;6.10;;;;;;;18.02;81.25;101329.34;5017873;28;20103;-73
2022/07/26 06:18:48;;;;;;;17.85;6.20;;;;;;;18.07;80.94;101335.19;5021301;28;20025;-73
2022/07/26 06:21:13;;;;;;;19.70;6.13;;;;;;;18.10;80.04;101337.63;5022738;28;20026;-74
2022/07/26 06:23:38;;;;;;;14.18;5.22;;;;;;;18.13;80.00;101336.47;5027613;28;20485;-74
2022/07/26 06:26:04;;;;;;;17.65;5.68;;;;;;;18.17;80.01;101337.88;5023874;28;20025;-74
2022/07/26 06:28:29;;;;;;;17.90;5.75;;;;;;;18.22;79.08;101342.88;5021497;28;20048;-74
2022/07/26 06:30:54;;;;;;;16.52;5.32;;;;;;;18.23;77.77;101347.28;5021372;28;20339;-74
2022/07/26 06:33:20;;;;;;;17.05;6.05;;;;;;;18.26;78.24;101341.53;5025224;28;20021;-74
2022/07/26 06:35:45;;;;;;;24.23;5.90;;;;;;;18.29;77.74;101331.22;5017326;28;20025;-74
2022/07/26 06:38:10;;;;;;;18.65;5.78;;;;;;;18.31;76.94;101344.69;5022467;28;20053;-74
2022/07/26 06:40:36;;;;;;;17.63;5.68;;;;;;;18.35;77.60;101340.66;5021127;28;20031;-69
2022/07/26 06:43:01;;;;;;;19.73;5.50;;;;;;;18.39;77.59;101346.63;5024437;28;20490;-69
2022/07/26 06:45:27;;;;;;;16.83;4.97;;;;;;;18.44;77.61;101345.16;5022365;28;20022;-69
2022/07/26 06:47:53;;;;;;;17.98;5.93;;;;;;;18.46;77.55;101342.28;5020741;28;20366;-68
2022/07/26 06:50:18;;;;;;;19.52;5.22;;;;;;;18.50;77.83;101351.88;5018644;28;20037;-68
2022/07/26 06:52:43;;;;;;;17.50;5.80;;;;;;;18.53;78.33;101359.72;5020222;28;20030;-69
2022/07/26 06:55:09;;;;;;;15.45;4.50;;;;;;;18.57;77.79;101354.84;5018939;28;20033;-69
2022/07/26 06:57:35;;;;;;;18.63;5.18;;;;;;;18.60;77.64;101358.13;5021198;28;20033;-69
2022/07/26 07:00:02;;;;;;;19.60;5.18;;;;;;;18.65;76.28;101365.81;5020757;28;20139;-68
2022/07/26 07:02:28;;;;;;;15.43;4.78;;;;;;;18.69;76.53;101359.06;5020525;28;20034;-69
2022/07/26 07:04:53;;;;;;;22.77;4.70;;;;;;;18.74;75.60;101361.31;5024116;28;20025;-68
2022/07/26 07:07:18;;;;;;;15.45;5.32;;;;;;;18.75;75.37;101366.63;5021394;28;20471;-66
2022/07/26 07:09:43;;;;;;;14.40;4.55;;;;;;;18.79;74.88;101375.34;5018299;28;20033;-67
2022/07/26 07:12:09;;;;;;;14.40;4.25;;;;;;;18.84;75.64;101375.72;5015984;28;20030;-67
2022/07/26 07:14:34;;;;;;;16.23;4.72;;;;;;;18.89;74.03;101380.75;5015277;28;20026;-68
2022/07/26 07:16:59;;;;;;;12.23;4.07;;;;;;;18.91;73.32;101376.84;5020780;28;20037;-68
2022/07/26 07:19:25;;;;;;;15.25;4.28;;;;;;;18.97;73.37;101380.84;5029990;28;20024;-68
2022/07/26 07:21:50;;;;;;;12.00;3.85;;;;;;;19.01;73.70;101383.09;5029141;28;20091;-68
2022/07/26 07:24:16;;;;;;;12.45;3.75;;;;;;;19.00;72.69;101385.97;5024253;28;20611;-68
2022/07/26 07:26:41;;;;;;;16.08;3.70;;;;;;;18.98;72.81;101379.84;5026730;28;20033;-69
2022/07/26 07:29:10;;;;;;;13.45;3.75;;;;;;;18.96;71.28;101387.28;5027377;28;20056;-69
2022/07/26 07:31:36;;;;;;;14.00;3.58;;;;;;;19.01;72.05;101391.25;5025729;28;20495;-69
2022/07/26 07:34:01;;;;;;;13.13;3.75;;;;;;;19.06;72.02;101379.91;5024653;28;20071;-68
2022/07/26 07:36:26;;;;;;;16.33;3.72;;;;;;;19.13;72.88;101381.00;5027417;28;20452;-68
2022/07/26 07:38:51;;;;;;;12.10;3.53;;;;;;;19.19;72.68;101385.81;5025861;28;20801;-68
2022/07/26 07:41:17;;;;;;;13.82;3.85;;;;;;;19.17;70.93;101387.00;5026746;28;20037;-68
2022/07/26 07:43:43;;;;;;;14.32;3.50;;;;;;;19.15;71.44;101383.56;5021335;28;20038;-68
2022/07/26 07:46:08;;;;;;;13.68;3.63;;;;;;;19.17;72.12;101387.00;5028206;28;20472;-68
2022/07/26 07:48:33;;;;;;;12.52;3.53;;;;;;;19.24;72.42;101385.38;5027604;28;20033;-68
2022/07/26 07:50:58;;;;;;;14.60;4.10;;;;;;;19.34;72.97;101391.59;5025297;28;20090;-68
2022/07/26 07:53:23;;;;;;;12.10;3.65;;;;;;;19.45;72.36;101384.19;5028608;28;20025;-68
2022/07/26 07:55:49;;;;;;;10.00;3.60;;;;;;;19.48;71.26;101392.88;5028367;28;20464;-74
2022/07/26 07:58:15;;;;;;;9.10;3.80;;;;;;;19.47;70.10;101382.13;5026598;28;20045;-74
2022/07/26 08:00:41;;;;;;;12.30;3.70;;;;;;;19.43;70.34;101392.53;5028409;28;20038;-74
2022/07/26 08:03:07;;;;;;;12.10;4.28;;;;;;;19.40;70.48;101381.94;5026911;28;20083;-74
2022/07/26 08:05:32;;;;;;;19.58;4.32;;;;;;;19.42;70.45;101390.78;5028306;28;20021;-74
2022/07/26 08:07:58;;;;;;;12.60;4.38;;;;;;;19.42;70.56;101401.69;5028473;28;20041;-73
2022/07/26 08:10:23;;;;;;;11.73;4.65;;;;;;;19.43;71.71;101403.41;5025630;28;20037;-73
2022/07/26 08:12:48;;;;;;;10.90;4.53;;;;;;;19.41;72.03;101405.44;5023136;28;20029;-73
2022/07/26 08:15:14;;;;;;;17.42;5.65;;;;;;;19.40;73.87;101409.19;5026760;28;20033;-73
2022/07/26 08:17:39;;;;;;;13.70;4.15;;;;;;;19.39;73.72;101412.91;5032047;28;20060;-73
2022/07/26 08:20:05;;;;;;;13.25;3.80;;;;;;;19.34;76.84;101418.84;5036695;28;20033;-73
2022/07/26 08:22:30;;;;;;;7.78;2.80;;;;;;;19.26;76.91;101423.38;5028776;28;20033;-73
2022/07/26 08:24:55;;;;;;;6.72;2.92;;;;;;;19.19;79.03;101426.69;5028847;28;20529;-73
2022/07/26 08:27:21;;;;;;;5.78;2.28;;;;;;;19.11;77.64;101432.06;5026411;28;20475;-73
2022/07/26 08:29:46;;;;;;;7.82;2.38;;;;;;;19.08;80.22;101432.38;5029525;28;20029;-73
2022/07/26 08:32:11;;;;;;;4.15;2.03;;;;;;;19.02;79.17;101438.44;5030190;28;20424;-73
2022/07/26 08:34:36;;;;;;;3.55;2.00;;;;;;;18.99;80.17;101431.44;5030341;28;20031;-73
2022/07/26 08:37:02;;;;;;;5.43;1.95;;;;;;;18.96;80.29;101439.91;5027952;28;20128;-73
2022/07/26 08:39:27;;;;;;;6.65;1.98;;;;;;;18.94;80.55;101439.19;5030133;28;20036;-73
2022/07/26 08:41:53;;;;;;;3.53;1.55;;;;;;;18.94;80.51;101435.63;5028130;28;20037;-73
2022/07/26 08:44:18;;;;;;;2.20;1.60;;;;;;;18.94;79.28;101443.81;5026307;28;20017;-73
2022/07/26 08:46:43;;;;;;;5.63;1.67;;;;;;;18.99;79.69;101441.47;5029741;28;20075;-73
2022/07/26 08:49:10;;;;;;;4.25;1.98;;;;;;;19.06;78.88;101439.84;5027440;28;20037;-73
2022/07/26 08:51:44;;;;;;;2.80;1.50;;;;;;;19.14;77.78;101450.00;5030535;28;20488;-73
2022/07/26 08:54:11;;;;;;;3.67;1.73;;;;;;;19.17;76.88;101455.97;5028317;28;20389;-73
2022/07/26 08:56:52;;;;;;;5.30;2.00;;;;;;;19.18;78.05;101454.09;5030640;28;20079;-73
2022/07/26 08:59:19;;;;;;;1.38;1.25;;;;;;;19.20;78.43;101443.91;5028358;28;20021;-73
2022/07/26 09:01:56;;;;;;;5.70;1.67;;;;;;;19.23;77.22;101450.94;5028627;28;20018;-73
2022/07/26 09:04:27;;;;;;;4.90;1.95;;;;;;;19.25;76.26;101448.88;5028447;28;20021;-73
2022/07/26 09:06:58;;;;;;;3.60;1.85;;;;;;;19.30;76.11;101455.59;5031429;28;20025;-73
2022/07/26 09:09:24;;;;;;;3.83;1.90;;;;;;;19.44;76.12;101450.59;5031318;28;20029;-68
2022/07/26 09:11:50;;;;;;;4.07;2.03;;;;;;;19.54;76.38;101446.78;5031150;28;20106;-69
2022/07/26 09:14:15;;;;;;;4.05;1.88;;;;;;;19.63;76.23;101452.31;5028856;28;20029;-69
2022/07/26 09:16:40;;;;;;;3.08;1.60;;;;;;;19.69;73.89;101451.66;5032757;28;20025;-69
2022/07/26 09:19:21;;;;;;;3.58;1.90;;;;;;;19.73;74.63;101453.06;5030052;28;20496;-69
2022/07/26 09:21:47;;;;;;;5.03;2.15;;;;;;;19.75;74.48;101456.50;5028984;28;20036;-69
2022/07/26 09:24:28;;;;;;;3.40;1.80;;;;;;;19.84;75.43;101463.78;5025278;28;20029;-69
2022/07/26 09:26:58;;;;;;;5.05;2.15;;;;;;;19.85;74.58;101465.47;5027189;28;20029;-69
2022/07/26 09:29:23;;;;;;;6.13;2.42;;;;;;;19.87;74.67;101468.91;5030804;28;20037;-69
2022/07/26 09:31:48;;;;;;;3.55;2.20;;;;;;;19.87;74.80;101463.47;5027426;28;20044;-69
2022/07/26 09:34:24;;;;;;;7.80;2.78;;;;;;;19.87;73.95;101477.09;5029945;28;20036;-69
2022/07/26 09:36:51;;;;;;;5.82;2.30;;;;;;;19.83;73.72;101472.97;5028202;28;20088;-69
2022/07/26 09:39:16;;;;;;;6.65;2.45;;;;;;;19.82;74.75;101482.16;5029199;28;20406;-69
2022/07/26 09:41:42;;;;;;;6.45;2.95;;;;;;;19.82;73.40;101484.03;5030437;28;20036;-69
2022/07/26 09:44:25;;;;;;;9.68;2.60;;;;;;;19.84;73.98;101485.59;5029415;28;20069;-69
2022/07/26 09:46:56;;;;;;;13.10;2.67;;;;;;;19.90;73.83;101490.41;5027609;28;20037;-69
2022/07/26 09:49:24;;;;;;;9.35;2.80;;;;;;;19.96;72.76;101496.28;5027645;28;20037;-69
2022/07/26 09:51:51;;;;;;;6.32;2.42;;;;;;;20.00;72.85;101495.78;5028540;28;20087;-69
2022/07/26 09:54:19;;;;;;;10.57;2.50;;;;;;;20.02;72.22;101495.63;5029815;28;20112;-69
2022/07/26 09:56:51;;;;;;;6.68;2.30;;;;;;;20.03;72.17;101495.47;5029826;28;20033;-70
2022/07/26 09:59:18;;;;;;;6.95;2.80;;;;;;;20.09;72.86;101493.97;5029353;28;20029;-69
2022/07/26 10:01:44;;;;;;;8.13;2.40;;;;;;;20.13;72.31;101492.63;5028974;28;20112;-69
2022/07/26 10:04:11;;;;;;;7.57;2.40;;;;;;;20.17;71.91;101498.63;5026208;28;20426;-70
2022/07/26 10:06:36;;;;;;;8.82;3.00;;;;;;;20.18;71.69;101512.13;5043235;28;20037;-70
2022/07/26 10:09:03;;;;;;;6.97;1.80;;;;;;;20.13;69.74;101508.16;5026663;28;20372;-70
2022/07/26 10:11:35;;;;;;;5.28;1.65;;;;;;;20.11;70.39;101510.19;5029040;28;20040;-70
2022/07/26 10:14:32;;;;;;;4.32;1.90;;;;;;;20.10;72.37;101514.78;5027844;28;20025;-70
2022/07/26 10:16:59;;;;;;;5.65;1.77;;;;;;;20.01;74.37;101521.19;5029999;28;20466;-70
2022/07/26 10:19:38;;;;;;;6.32;2.25;;;;;;;19.95;75.52;101527.28;5024749;28;20578;-70
2022/07/26 10:22:26;;;;;;;5.03;1.90;;;;;;;19.87;75.38;101531.66;5024238;28;20052;-68
2022/07/26 10:24:53;;;;;;;8.00;2.95;;;;;;;19.73;73.84;101529.44;5025264;28;20477;-68
2022/07/26 10:27:39;;;;;;;6.57;2.63;;;;;;;19.72;75.22;101534.03;5027504;28;20049;-68
2022/07/26 10:30:16;;;;;;;10.68;3.08;;;;;;;19.69;74.67;101536.22;5026317;28;20033;-68
2022/07/26 10:33:00;;;;;;;8.45;2.58;;;;;;;19.72;76.86;101534.03;5027164;28;20480;-68
2022/07/26 10:35:35;;;;;;;7.28;2.53;;;;;;;19.80;74.90;101537.91;5026995;28;20495;-68
2022/07/26 10:38:06;;;;;;;6.75;2.10;;;;;;;19.92;74.74;101536.63;5027670;28;20408;-68
2022/07/26 10:40:32;;;;;;;8.13;2.30;;;;;;;19.98;71.33;101532.41;5019558;28;20064;-68
2022/07/26 10:43:09;;;;;;;9.00;2.38;;;;;;;20.07;72.62;101531.47;5029852;28;20430;-69
2022/07/26 10:45:35;;;;;;;4.20;1.77;;;;;;;20.19;70.81;101540.25;5035916;28;20034;-69
2022/07/26 10:48:18;;;;;;;3.60;1.55;;;;;;;20.33;70.53;101538.84;5023151;28;20033;-70
2022/07/26 10:50:46;;;;;;;4.53;1.50;;;;;;;20.42;69.00;101537.88;5024836;28;20036;-68
2022/07/26 10:53:22;;;;;;;6.60;1.67;;;;;;;20.53;69.84;101542.22;5029677;28;20075;-68
2022/07/26 10:55:51;;;;;;;2.20;1.58;;;;;;;20.64;70.40;101543.81;5026907;28;20042;-69
2022/07/26 10:58:17;;;;;;;5.30;1.73;;;;;;;20.67;68.49;101546.25;5027411;28;20053;-68
2022/07/26 11:01:05;;;;;;;11.10;1.98;;;;;;;20.78;69.12;101554.16;5032385;28;20563;-68
2022/07/26 11:03:36;;;;;;;1.63;1.52;;;;;;;20.81;66.94;101551.09;5029373;28;20037;-68
2022/07/26 11:06:11;;;;;;;2.17;1.25;;;;;;;20.81;67.60;101562.03;5029819;28;20025;-68
2022/07/26 11:08:36;;;;;;;5.88;1.70;;;;;;;20.82;67.67;101573.81;5032792;28;20390;-68
2022/07/26 11:11:02;;;;;;;6.97;1.65;;;;;;;20.77;67.54;101572.41;5033671;28;20105;-68
2022/07/26 11:13:31;;;;;;;7.65;2.20;;;;;;;20.69;70.43;101576.97;5030700;28;20032;-68
2022/07/26 11:16:03;;;;;;;;;;;;;;;20.70;70.61;101579.53;5028689;28;20068;-69
2022/07/26 11:18:35;;;;;;;6.05;1.85;;;;;;;20.47;75.25;101584.66;5026233;28;19931;-68
2022/07/26 11:21:14;;;;;;;4.38;2.10;;;;;;;20.25;74.39;101578.69;5030510;28;20034;-68
2022/07/26 11:23:47;;;;;;;4.72;2.00;;;;;;;20.06;76.56;101577.00;5024743;28;20462;-68